Time;durP1;ratioP1;P1;durP2;ratioP2;P2;SDS_P1;SDS_P2;PMS_P1;PMS_P2;Temp;Humidity;BMP_temperature;BMP_pressure;BME280_temperature;BME280_humidity;BME280_pressure;Samples;Min_cycle;Max_cycle;Signal;HPM_P1;HPM_P2
2022/03/10 00:00:07;;;;;;;37.63;20.40;;;5.60;99.90;;;;;;5018905;28;20091;-68
2022/03/10 00:02:39;;;;;;;36.38;20.60;;;5.70;99.90;;;;;;5018447;28;20038;-70
2022/03/10 00:05:08;;;;;;;37.35;20.77;;;5.60;99.90;;;;;;5018135;28;20026;-69
2022/03/10 00:07:35;;;;;;;37.90;19.75;;;5.60;99.90;;;;;;5001831;28;20121;-70
2022/03/10 00:10:01;;;;;;;39.25;19.48;;;5.60;99.90;;;;;;5017444;28;20026;-70
2022/03/10 00:12:27;;;;;;;38.78;20.35;;;5.50;99.90;;;;;;5018055;28;20026;-69
2022/03/10 00:14:52;;;;;;;40.13;20.85;;;5.50;99.90;;;;;;5000995;28;20045;-69
2022/03/10 00:17:18;;;;;;;36.50;18.80;;;5.40;99.90;;;;;;5017804;28;20575;-70
2022/03/10 00:19:44;;;;;;;38.72;20.75;;;5.40;99.90;;;;;;5017243;28;20038;-70
2022/03/10 00:22:11;;;;;;;40.30;20.88;;;5.40;99.90;;;;;;5000598;28;20042;-70
2022/03/10 00:24:38;;;;;;;40.67;20.58;;;5.40;99.90;;;;;;5001248;28;20062;-70
2022/03/10 00:27:05;;;;;;;37.85;19.40;;;5.40;99.90;;;;;;5018497;28;20109;-70
2022/03/10 00:29:31;;;;;;;38.13;19.42;;;5.40;99.90;;;;;;5018596;28;20034;-71
2022/03/10 00:31:57;;;;;;;40.28;21.27;;;5.30;99.90;;;;;;5018894;28;20390;-70
2022/03/10 00:34:22;;;;;;;37.25;21.08;;;5.20;99.90;;;;;;5017905;28;20394;-70
2022/03/10 00:36:48;;;;;;;40.13;20.63;;;5.20;99.90;;;;;;4985529;28;20077;-71
2022/03/10 00:39:14;;;;;;;39.15;20.77;;;5.20;99.90;;;;;;5018123;28;20120;-69
2022/03/10 00:41:40;;;;;;;39.35;20.00;;;5.20;99.90;;;;;;5017542;28;20061;-69
2022/03/10 00:44:06;;;;;;;36.20;19.20;;;5.10;99.90;;;;;;5017314;28;20046;-70
2022/03/10 00:46:31;;;;;;;40.63;20.05;;;5.00;99.90;;;;;;5018258;28;20038;-70
2022/03/10 00:48:57;;;;;;;38.30;20.52;;;5.00;99.90;;;;;;5018386;28;20041;-70
2022/03/10 00:51:23;;;;;;;39.15;20.95;;;5.00;99.90;;;;;;5016972;28;20038;-70
2022/03/10 00:53:49;;;;;;;39.72;20.55;;;5.00;99.90;;;;;;5017756;28;20037;-69
2022/03/10 00:56:15;;;;;;;39.10;20.77;;;5.00;99.90;;;;;;5017149;28;20033;-70
2022/03/10 00:58:41;;;;;;;42.55;20.27;;;4.90;99.90;;;;;;5017198;28;20044;-69
2022/03/10 01:01:06;;;;;;;41.60;20.33;;;5.00;99.90;;;;;;5017153;28;20045;-70
2022/03/10 01:03:32;;;;;;;40.60;19.83;;;4.90;99.90;;;;;;5016716;28;20410;-69
2022/03/10 01:05:58;;;;;;;42.35;20.85;;;4.90;99.90;;;;;;5017178;28;20056;-69
2022/03/10 01:08:24;;;;;;;39.10;20.25;;;4.90;99.90;;;;;;5016529;28;20058;-70
2022/03/10 01:10:49;;;;;;;38.53;20.33;;;4.80;99.90;;;;;;5000083;28;20113;-70
2022/03/10 01:13:17;;;;;;;37.10;19.42;;;4.70;99.90;;;;;;5000093;28;20038;-70
2022/03/10 01:15:45;;;;;;;35.42;19.75;;;4.70;99.90;;;;;;5017001;28;20045;-69
2022/03/10 01:18:11;;;;;;;39.03;20.35;;;4.70;99.90;;;;;;5016134;28;20042;-69
2022/03/10 01:20:37;;;;;;;42.83;21.88;;;4.60;99.90;;;;;;5017213;28;20026;-69
2022/03/10 01:23:03;;;;;;;37.20;20.65;;;4.50;99.90;;;;;;5017527;28;20048;-70
2022/03/10 01:25:29;;;;;;;39.42;19.73;;;4.50;99.90;;;;;;5017619;28;20054;-70
2022/03/10 01:27:55;;;;;;;36.42;20.35;;;4.60;99.90;;;;;;5034554;28;20406;-68
2022/03/10 01:30:21;;;;;;;35.85;20.27;;;4.50;99.90;;;;;;5022835;28;20045;-68
2022/03/10 01:32:48;;;;;;;40.55;20.38;;;4.50;99.90;;;;;;5021609;28;20064;-70
2022/03/10 01:35:15;;;;;;;39.70;20.27;;;4.50;99.90;;;;;;5021738;28;20037;-70
2022/03/10 01:37:41;;;;;;;37.80;20.40;;;4.50;99.90;;;;;;5020732;28;20033;-70
2022/03/10 01:40:10;;;;;;;40.53;21.13;;;4.50;99.90;;;;;;5020409;28;20042;-70
2022/03/10 01:42:37;;;;;;;40.10;20.00;;;4.50;99.90;;;;;;5019960;28;20074;-69
2022/03/10 01:45:04;;;;;;;35.30;18.95;;;4.60;99.90;;;;;;5003736;28;20049;-68
2022/03/10 01:47:30;;;;;;;39.38;20.67;;;4.60;99.90;;;;;;5019800;28;20026;-68
2022/03/10 01:49:56;;;;;;;38.60;19.48;;;4.50;99.90;;;;;;5003266;28;20301;-68
2022/03/10 01:52:23;;;;;;;37.50;20.70;;;4.50;99.90;;;;;;5020212;28;20038;-69
2022/03/10 01:54:49;;;;;;;38.40;19.90;;;4.50;99.90;;;;;;5020096;28;20049;-69
2022/03/10 01:57:16;;;;;;;36.97;19.92;;;4.50;99.90;;;;;;5019041;28;20072;-68
2022/03/10 01:59:42;;;;;;;37.10;19.80;;;4.40;99.90;;;;;;5003013;28;20018;-69
2022/03/10 02:02:09;;;;;;;41.25;21.27;;;4.40;99.90;;;;;;5003009;28;20030;-68
2022/03/10 02:04:35;;;;;;;39.90;19.77;;;4.30;99.90;;;;;;5019339;28;20128;-68
2022/03/10 02:07:08;;;;;;;39.22;20.50;;;4.30;99.90;;;;;;5019897;28;20068;-68
2022/03/10 02:12:19;;;;;;;41.85;21.50;;;4.30;99.90;;;;;;5019906;28;20042;-68
2022/03/10 02:17:30;;;;;;;38.97;20.35;;;4.30;99.90;;;;;;5019234;28;20080;-69
2022/03/10 02:19:59;;;;;;;39.33;20.50;;;4.30;99.90;;;;;;5019693;28;20287;-69
2022/03/10 02:22:26;;;;;;;37.72;20.05;;;4.30;99.90;;;;;;5020678;28;20042;-69
2022/03/10 02:24:53;;;;;;;40.47;20.92;;;4.20;99.90;;;;;;5020148;28;20117;-69
2022/03/10 02:27:27;;;;;;;38.78;20.23;;;4.20;99.90;;;;;;5020133;28;20319;-68
2022/03/10 02:30:00;;;;;;;36.78;19.88;;;4.20;99.90;;;;;;5020040;28;20029;-69
2022/03/10 02:32:27;;;;;;;39.47;20.90;;;4.20;99.90;;;;;;5019682;28;20030;-68
2022/03/10 02:34:53;;;;;;;39.60;21.33;;;4.20;99.90;;;;;;5019718;28;20022;-69
2022/03/10 02:37:19;;;;;;;36.55;20.08;;;4.30;99.90;;;;;;5019666;28;20282;-69
2022/03/10 02:39:45;;;;;;;37.53;19.40;;;4.20;99.90;;;;;;5018781;28;20299;-68
2022/03/10 02:42:12;;;;;;;36.10;19.88;;;4.00;99.90;;;;;;5019716;28;20275;-69
2022/03/10 02:44:57;;;;;;;42.05;20.35;;;4.00;99.90;;;;;;5020213;28;20030;-71
2022/03/10 02:47:23;;;;;;;36.42;20.10;;;4.00;99.90;;;;;;5002485;28;20038;-69
2022/03/10 02:49:51;;;;;;;39.53;21.33;;;4.00;99.90;;;;;;5019761;28;20021;-69
2022/03/10 02:52:17;;;;;;;40.55;21.00;;;3.90;99.90;;;;;;5018669;28;20041;-69
2022/03/10 02:54:44;;;;;;;39.30;20.17;;;3.90;99.90;;;;;;5019296;28;20038;-68
2022/03/10 02:57:11;;;;;;;40.55;20.30;;;3.90;99.90;;;;;;5019666;28;20057;-69
2022/03/10 02:59:36;;;;;;;38.35;20.48;;;3.90;99.90;;;;;;5018602;28;20033;-69
2022/03/10 03:02:04;;;;;;;35.78;20.15;;;3.90;99.90;;;;;;5019161;28;20038;-69
2022/03/10 03:04:30;;;;;;;40.85;21.15;;;3.90;99.90;;;;;;5019060;28;20042;-69
2022/03/10 03:06:55;;;;;;;37.97;20.98;;;3.90;99.90;;;;;;5002801;28;20113;-69
2022/03/10 03:09:21;;;;;;;38.30;21.10;;;3.80;99.90;;;;;;5019730;28;20030;-69
2022/03/10 03:11:47;;;;;;;39.05;19.90;;;3.80;99.90;;;;;;5018999;28;20034;-69
2022/03/10 03:14:13;;;;;;;37.25;20.60;;;3.70;99.90;;;;;;5019867;28;20124;-71
2022/03/10 03:16:40;;;;;;;41.22;20.65;;;3.80;99.90;;;;;;5019761;28;20069;-70
2022/03/10 03:19:06;;;;;;;45.05;21.58;;;3.80;99.90;;;;;;5018983;28;20034;-69
2022/03/10 03:21:32;;;;;;;38.85;20.88;;;3.70;99.90;;;;;;5018868;28;20077;-69
2022/03/10 03:23:57;;;;;;;39.47;20.50;;;3.60;99.90;;;;;;5018461;28;20113;-69
2022/03/10 03:26:23;;;;;;;40.30;20.73;;;3.60;99.90;;;;;;5002289;28;20470;-69
2022/03/10 03:28:49;;;;;;;37.83;20.63;;;3.60;99.90;;;;;;5018311;28;20037;-69
2022/03/10 03:31:16;;;;;;;37.65;20.38;;;3.60;99.90;;;;;;5018064;28;20095;-69
2022/03/10 03:33:42;;;;;;;35.97;20.08;;;3.60;99.90;;;;;;5018617;28;20101;-69
2022/03/10 03:36:08;;;;;;;39.50;20.73;;;3.50;99.90;;;;;;5002571;28;20049;-69
2022/03/10 03:38:34;;;;;;;40.38;20.27;;;3.50;99.90;;;;;;5019229;28;20087;-70
2022/03/10 03:41:00;;;;;;;40.90;21.20;;;3.60;99.90;;;;;;5002649;28;20030;-69
2022/03/10 03:43:26;;;;;;;38.97;21.25;;;3.50;99.90;;;;;;5018550;28;20046;-69
2022/03/10 03:45:52;;;;;;;41.75;20.95;;;3.50;99.90;;;;;;5018419;28;20037;-69
2022/03/10 03:48:18;;;;;;;42.45;21.33;;;3.50;99.90;;;;;;5018541;28;20037;-69
2022/03/10 03:50:43;;;;;;;42.88;21.60;;;3.40;99.90;;;;;;5017871;28;20076;-69
2022/03/10 03:53:09;;;;;;;36.10;19.90;;;3.50;99.90;;;;;;5018092;28;20108;-69
2022/03/10 03:55:35;;;;;;;39.22;20.58;;;3.40;99.90;;;;;;5019042;28;20310;-69
2022/03/10 03:58:00;;;;;;;35.20;20.45;;;3.40;99.90;;;;;;5018912;28;20057;-69
2022/03/10 04:00:26;;;;;;;35.65;20.00;;;3.30;99.90;;;;;;5018639;28;20060;-69
2022/03/10 04:02:54;;;;;;;39.75;20.23;;;3.30;99.90;;;;;;5017812;28;20096;-69
2022/03/10 04:05:20;;;;;;;39.75;20.85;;;3.30;99.90;;;;;;5017542;28;20398;-69
2022/03/10 04:07:46;;;;;;;39.22;20.75;;;3.30;99.90;;;;;;5018559;28;20068;-69
2022/03/10 04:10:12;;;;;;;36.45;19.95;;;3.20;99.90;;;;;;5018468;28;20068;-69
2022/03/10 04:12:37;;;;;;;40.20;21.48;;;3.20;99.90;;;;;;5002070;28;20061;-69
2022/03/10 04:15:04;;;;;;;36.65;19.88;;;3.10;99.90;;;;;;5018432;28;20045;-69
2022/03/10 04:17:32;;;;;;;39.00;20.77;;;3.20;99.90;;;;;;5018996;28;20026;-69
2022/03/10 04:19:59;;;;;;;37.38;20.65;;;3.20;99.90;;;;;;5018553;28;20341;-69
2022/03/10 04:22:24;;;;;;;41.22;21.17;;;3.30;99.90;;;;;;5017519;28;20045;-70
2022/03/10 04:24:50;;;;;;;37.88;20.23;;;3.30;99.90;;;;;;5017989;28;20087;-69
2022/03/10 04:27:16;;;;;;;40.38;20.75;;;3.30;99.90;;;;;;5018032;28;20030;-69
2022/03/10 04:29:42;;;;;;;39.45;21.25;;;3.30;99.90;;;;;;5017934;28;20045;-69
2022/03/10 04:32:08;;;;;;;38.28;20.85;;;3.20;99.90;;;;;;5017537;28;20056;-69
2022/03/10 04:34:34;;;;;;;42.55;21.27;;;3.20;99.90;;;;;;5001540;28;20037;-69
2022/03/10 04:37:00;;;;;;;38.40;21.00;;;3.20;99.90;;;;;;5017551;28;20413;-69
2022/03/10 04:39:25;;;;;;;38.75;20.33;;;3.10;99.90;;;;;;5017646;28;20095;-69
2022/03/10 04:41:51;;;;;;;38.25;20.73;;;3.10;99.90;;;;;;5018262;28;20034;-69
2022/03/10 04:44:17;;;;;;;40.92;21.15;;;3.10;99.90;;;;;;5001094;28;20137;-69
2022/03/10 04:46:43;;;;;;;34.40;20.90;;;3.00;99.90;;;;;;5018307;28;20102;-68
2022/03/10 04:49:09;;;;;;;39.90;21.15;;;3.10;99.90;;;;;;5000948;28;20085;-69
2022/03/10 04:51:35;;;;;;;40.53;20.52;;;3.00;99.90;;;;;;5017148;28;20067;-69
2022/03/10 04:54:00;;;;;;;39.15;21.65;;;3.00;99.90;;;;;;5000518;28;20057;-69
2022/03/10 04:56:26;;;;;;;43.28;21.50;;;3.10;99.90;;;;;;5016143;28;20038;-68
2022/03/10 04:58:52;;;;;;;41.10;21.10;;;3.10;99.90;;;;;;5016952;28;20045;-68
2022/03/10 05:01:18;;;;;;;37.03;20.25;;;3.00;99.90;;;;;;5017237;28;20033;-69
2022/03/10 05:03:44;;;;;;;40.47;21.45;;;3.10;99.90;;;;;;5017705;28;20030;-69
2022/03/10 05:06:10;;;;;;;39.67;22.40;;;3.10;99.90;;;;;;5019903;28;20259;-68
2022/03/10 05:08:36;;;;;;;39.15;21.33;;;3.00;99.90;;;;;;5020706;28;20037;-68
2022/03/10 05:11:02;;;;;;;36.47;20.83;;;3.00;99.90;;;;;;5020932;28;20034;-68
2022/03/10 05:13:27;;;;;;;40.88;22.05;;;3.10;99.90;;;;;;5003308;28;20057;-68
2022/03/10 05:15:54;;;;;;;40.90;22.38;;;3.10;99.90;;;;;;5019519;28;20045;-69
2022/03/10 05:18:20;;;;;;;38.80;21.10;;;3.30;99.90;;;;;;5020161;28;20129;-69
2022/03/10 05:20:46;;;;;;;39.35;20.83;;;3.20;99.90;;;;;;5020133;28;20344;-71
2022/03/10 05:23:12;;;;;;;41.63;22.27;;;3.10;99.90;;;;;;5020377;28;20037;-69
2022/03/10 05:25:41;;;;;;;41.13;22.42;;;3.10;99.90;;;;;;5020212;28;20032;-68
2022/03/10 05:28:13;;;;;;;39.60;21.55;;;3.00;99.90;;;;;;5020039;28;20022;-68
2022/03/10 05:30:41;;;;;;;36.78;20.33;;;3.00;99.90;;;;;;5019991;28;20069;-69
2022/03/10 05:33:08;;;;;;;39.83;21.08;;;2.90;99.90;;;;;;5019299;28;20034;-69
2022/03/10 05:35:35;;;;;;;39.05;20.67;;;2.90;99.90;;;;;;5019113;28;20038;-69
2022/03/10 05:38:02;;;;;;;42.72;22.77;;;3.00;99.90;;;;;;5019865;28;20038;-68
2022/03/10 05:40:28;;;;;;;42.72;21.83;;;2.90;99.90;;;;;;5018957;28;20038;-69
2022/03/10 05:42:55;;;;;;;41.17;21.05;;;2.90;99.90;;;;;;5019455;28;20436;-68
2022/03/10 05:45:22;;;;;;;41.97;21.67;;;2.90;99.90;;;;;;5019728;28;20029;-69
2022/03/10 05:47:49;;;;;;;42.75;21.80;;;2.90;99.90;;;;;;5019654;28;20045;-69
2022/03/10 05:50:15;;;;;;;40.83;21.52;;;2.90;99.90;;;;;;5019610;28;20029;-69
2022/03/10 05:52:43;;;;;;;41.22;22.00;;;3.00;99.90;;;;;;5019382;28;20030;-69
2022/03/10 05:55:09;;;;;;;39.25;21.63;;;3.00;99.90;;;;;;5018957;28;20287;-69
2022/03/10 05:57:34;;;;;;;42.80;21.63;;;3.00;99.90;;;;;;5002680;28;20401;-70
2022/03/10 06:00:00;;;;;;;41.20;22.55;;;3.00;99.90;;;;;;5018846;28;20057;-69
2022/03/10 06:02:26;;;;;;;38.65;20.70;;;3.00;99.90;;;;;;5019761;28;20345;-69
2022/03/10 06:04:52;;;;;;;42.50;21.50;;;3.00;99.90;;;;;;5018757;28;20054;-68
2022/03/10 06:07:18;;;;;;;41.33;20.77;;;3.00;99.90;;;;;;5018877;28;20034;-68
2022/03/10 06:09:44;;;;;;;40.22;21.50;;;3.10;99.90;;;;;;5002184;28;20028;-68
2022/03/10 06:12:10;;;;;;;42.42;21.40;;;3.10;99.90;;;;;;5019834;28;20045;-69
2022/03/10 06:14:37;;;;;;;37.92;20.30;;;3.10;99.90;;;;;;5001846;28;20097;-68
2022/03/10 06:17:03;;;;;;;37.88;21.77;;;3.10;99.90;;;;;;5019387;28;20042;-69
2022/03/10 06:19:29;;;;;;;37.30;20.88;;;3.10;99.90;;;;;;5018515;28;20405;-69
2022/03/10 06:21:54;;;;;;;38.15;20.77;;;3.10;99.90;;;;;;5018439;28;20117;-67
2022/03/10 06:24:20;;;;;;;39.78;21.00;;;3.00;99.90;;;;;;5018209;28;20083;-67
2022/03/10 06:26:46;;;;;;;38.50;20.88;;;3.00;99.90;;;;;;5018965;28;20053;-67
2022/03/10 06:29:13;;;;;;;37.25;21.17;;;3.10;99.90;;;;;;5018227;28;20081;-67
2022/03/10 06:31:40;;;;;;;39.85;21.40;;;3.10;99.90;;;;;;5018431;28;20053;-66
2022/03/10 06:34:06;;;;;;;42.63;22.17;;;3.10;99.90;;;;;;5018874;28;20397;-66
2022/03/10 06:36:32;;;;;;;39.47;20.83;;;3.10;99.90;;;;;;5001691;28;20060;-66
2022/03/10 06:38:58;;;;;;;39.30;21.45;;;3.10;99.90;;;;;;5018681;28;20034;-67
2022/03/10 06:41:24;;;;;;;42.50;22.73;;;3.20;99.90;;;;;;5017871;28;20056;-66
2022/03/10 06:43:49;;;;;;;38.80;20.88;;;3.30;99.90;;;;;;5018517;28;20435;-68
2022/03/10 06:46:15;;;;;;;38.72;20.65;;;3.30;99.90;;;;;;5018503;28;20408;-68
2022/03/10 06:48:41;;;;;;;37.20;21.05;;;3.40;99.90;;;;;;5001289;28;20030;-68
2022/03/10 06:51:07;;;;;;;37.03;20.83;;;3.40;99.90;;;;;;5019079;28;20034;-68
2022/03/10 06:53:33;;;;;;;39.38;20.63;;;3.40;99.90;;;;;;5018027;28;20045;-68
2022/03/10 06:55:59;;;;;;;36.40;20.73;;;3.50;99.90;;;;;;5017708;28;20125;-68
2022/03/10 06:58:25;;;;;;;37.50;20.23;;;3.60;99.90;;;;;;5017573;28;20393;-68
2022/03/10 07:00:51;;;;;;;39.47;21.00;;;3.70;99.90;;;;;;5017465;28;20477;-67
2022/03/10 07:03:17;;;;;;;41.40;21.10;;;3.70;99.90;;;;;;5017237;28;20125;-68
2022/03/10 07:05:44;;;;;;;44.10;22.33;;;3.90;99.90;;;;;;4985029;28;20373;-68
2022/03/10 07:08:11;;;;;;;39.40;21.10;;;4.00;99.90;;;;;;5018206;28;20309;-68
2022/03/10 07:10:37;;;;;;;40.38;21.35;;;4.00;99.90;;;;;;5001313;28;20030;-68
2022/03/10 07:13:03;;;;;;;43.40;21.60;;;4.10;99.90;;;;;;5017661;28;20405;-69
2022/03/10 07:15:29;;;;;;;36.10;20.27;;;4.20;99.90;;;;;;5018484;28;20076;-68
2022/03/10 07:17:54;;;;;;;44.17;22.13;;;4.30;99.90;;;;;;5017252;28;20077;-69
2022/03/10 07:20:20;;;;;;;42.80;20.83;;;4.30;99.90;;;;;;5018380;28;20029;-67
2022/03/10 07:22:46;;;;;;;36.30;20.48;;;4.40;99.90;;;;;;5000782;28;20034;-67
2022/03/10 07:25:12;;;;;;;40.67;21.00;;;4.50;99.90;;;;;;5017504;28;20502;-68
2022/03/10 07:27:39;;;;;;;36.72;20.30;;;4.60;99.90;;;;;;5017353;28;20396;-67
2022/03/10 07:30:06;;;;;;;31.20;15.20;;;4.70;99.90;;;;;;5000494;28;20030;-65
2022/03/10 07:32:33;;;;;;;38.20;21.83;;;5.90;99.90;;;;;;5017002;28;20061;-67
2022/03/10 07:34:59;;;;;;;36.28;20.33;;;5.80;99.90;;;;;;5017099;28;20033;-67
2022/03/10 07:37:26;;;;;;;38.67;22.33;;;5.70;99.90;;;;;;5000524;28;20377;-67
2022/03/10 07:39:52;;;;;;;37.30;21.52;;;5.70;99.90;;;;;;5017529;28;20041;-69
2022/03/10 07:42:17;;;;;;;36.05;20.27;;;5.70;99.90;;;;;;5017443;28;20426;-68
2022/03/10 07:44:43;;;;;;;37.88;20.52;;;5.80;99.90;;;;;;5017896;28;20032;-69
2022/03/10 07:47:10;;;;;;;34.05;20.35;;;6.40;99.90;;;;;;5016961;28;20133;-68
2022/03/10 07:49:36;;;;;;;37.30;20.77;;;6.40;99.90;;;;;;5017027;28;20030;-69
2022/03/10 07:52:03;;;;;;;32.67;18.95;;;6.40;99.90;;;;;;5016612;28;20044;-68
2022/03/10 07:54:29;;;;;;;37.05;20.23;;;6.40;99.90;;;;;;5016651;28;20057;-69
2022/03/10 07:56:55;;;;;;;33.15;19.65;;;6.40;99.90;;;;;;5017400;28;20073;-69
2022/03/10 07:59:21;;;;;;;36.65;20.02;;;6.40;99.90;;;;;;5000404;28;20053;-69
2022/03/10 08:01:47;;;;;;;34.92;19.90;;;6.50;99.90;;;;;;5017251;28;20305;-68
2022/03/10 08:04:13;;;;;;;34.55;19.67;;;6.70;99.90;;;;;;5017229;28;20034;-69
2022/03/10 08:06:39;;;;;;;33.05;19.35;;;6.70;99.90;;;;;;5016414;28;20034;-69
2022/03/10 08:09:06;;;;;;;31.90;19.38;;;6.70;99.90;;;;;;5016403;28;20360;-69
2022/03/10 08:11:33;;;;;;;34.85;19.35;;;6.90;99.90;;;;;;5000119;28;20037;-68
2022/03/10 08:13:59;;;;;;;36.30;20.15;;;7.00;99.90;;;;;;5016492;28;20075;-69
2022/03/10 08:16:25;;;;;;;34.08;19.35;;;7.10;99.90;;;;;;4983867;28;20454;-70
2022/03/10 08:18:50;;;;;;;34.50;19.40;;;7.20;99.90;;;;;;5016476;28;20026;-69
2022/03/10 08:21:17;;;;;;;38.35;21.13;;;7.20;99.90;;;;;;5016172;28;20041;-70
2022/03/10 08:23:43;;;;;;;33.55;19.35;;;7.20;99.90;;;;;;4999959;28;20101;-68
2022/03/10 08:26:09;;;;;;;33.42;20.23;;;7.20;99.90;;;;;;5017058;28;20048;-70
2022/03/10 08:28:36;;;;;;;30.63;18.83;;;7.30;99.90;;;;;;5016466;28;20026;-69
2022/03/10 08:31:04;;;;;;;34.90;19.65;;;7.40;99.90;;;;;;5016569;28;20058;-64
2022/03/10 08:33:30;;;;;;;30.15;18.73;;;7.60;99.90;;;;;;5016927;28;20041;-68
2022/03/10 08:35:57;;;;;;;31.88;19.27;;;7.60;99.90;;;;;;4999831;28;20037;-69
2022/03/10 08:38:23;;;;;;;33.85;19.38;;;7.70;99.90;;;;;;5017505;28;20456;-69
2022/03/10 08:40:48;;;;;;;36.33;19.55;;;7.80;99.90;;;;;;5021066;28;20022;-69
2022/03/10 08:43:15;;;;;;;31.33;19.13;;;7.90;99.90;;;;;;5019903;28;20045;-69
2022/03/10 08:45:41;;;;;;;35.75;19.80;;;8.10;99.90;;;;;;5020016;28;20279;-69
2022/03/10 08:48:08;;;;;;;31.25;19.52;;;8.30;99.90;;;;;;5020147;28;20513;-70
2022/03/10 08:50:34;;;;;;;31.38;18.70;;;8.40;99.90;;;;;;5003708;28;20343;-70
2022/03/10 08:53:00;;;;;;;31.00;18.83;;;8.40;99.90;;;;;;5020123;28;20037;-69
2022/03/10 08:55:27;;;;;;;35.45;19.35;;;8.50;99.90;;;;;;5019944;28;20044;-70
2022/03/10 08:57:53;;;;;;;32.03;18.98;;;8.60;99.90;;;;;;5003585;28;20072;-69
2022/03/10 09:00:19;;;;;;;34.95;19.23;;;8.70;99.90;;;;;;5019791;28;20081;-69
2022/03/10 09:02:45;;;;;;;32.70;19.60;;;8.90;99.90;;;;;;5020461;28;20092;-68
2022/03/10 09:05:12;;;;;;;29.75;18.73;;;9.00;99.90;;;;;;5020456;28;20026;-69
2022/03/10 09:07:37;;;;;;;31.80;19.38;;;9.20;99.90;;;;;;5019749;28;20144;-69
2022/03/10 09:10:04;;;;;;;32.53;19.45;;;9.30;99.90;;;;;;5020500;28;20026;-69
2022/03/10 09:12:30;;;;;;;29.60;18.40;;;9.40;99.90;;;;;;5019702;28;20137;-70
2022/03/10 09:14:57;;;;;;;30.02;19.42;;;9.50;99.90;;;;;;5020534;28;20026;-69
2022/03/10 09:17:23;;;;;;;32.70;18.30;;;9.50;99.90;;;;;;5019892;28;20034;-69
2022/03/10 09:19:49;;;;;;;29.40;18.42;;;9.50;99.90;;;;;;5036222;28;20037;-70
2022/03/10 09:22:16;;;;;;;35.10;19.45;;;9.50;99.90;;;;;;5019313;28;20172;-69
2022/03/10 09:24:42;;;;;;;29.30;17.67;;;9.60;99.90;;;;;;5019401;28;20108;-69
2022/03/10 09:27:09;;;;;;;30.35;17.17;;;9.80;99.90;;;;;;5019439;28;20044;-69
2022/03/10 09:29:35;;;;;;;31.70;17.40;;;10.00;99.90;;;;;;5020671;28;20274;-71
2022/03/10 09:32:01;;;;;;;26.83;17.30;;;10.10;99.90;;;;;;5002989;28;20042;-69
2022/03/10 09:34:27;;;;;;;29.98;18.58;;;10.20;99.90;;;;;;5019431;28;20283;-68
2022/03/10 09:36:53;;;;;;;32.53;19.05;;;10.30;99.90;;;;;;5020159;28;20306;-68
2022/03/10 09:39:19;;;;;;;29.48;17.55;;;10.40;99.90;;;;;;5019996;28;20401;-69
2022/03/10 09:41:45;;;;;;;30.20;17.15;;;10.40;99.90;;;;;;5002957;28;20084;-69
2022/03/10 09:44:17;;;;;;;27.38;17.25;;;10.50;99.90;;;;;;5018981;28;20330;-69
2022/03/10 09:46:45;;;;;;;29.73;18.02;;;10.60;99.90;;;;;;5019874;28;20033;-69
2022/03/10 09:49:11;;;;;;;31.20;16.88;;;10.80;99.90;;;;;;5019281;28;20026;-70
2022/03/10 09:51:37;;;;;;;30.35;18.17;;;10.80;99.90;;;;;;5002887;28;20072;-70
2022/03/10 09:54:03;;;;;;;29.65;17.75;;;10.80;99.90;;;;;;5019077;28;20041;-69
2022/03/10 09:56:30;;;;;;;27.02;17.10;;;10.90;99.90;;;;;;5018920;28;20124;-69
2022/03/10 09:58:56;;;;;;;28.00;16.75;;;11.10;99.90;;;;;;5019003;28;20038;-70
2022/03/10 10:01:21;;;;;;;28.00;16.05;;;11.40;99.90;;;;;;5018822;28;20317;-69
2022/03/10 10:03:47;;;;;;;29.50;17.42;;;11.40;99.90;;;;;;5018823;28;20030;-68
2022/03/10 10:06:13;;;;;;;27.10;17.20;;;11.50;99.90;;;;;;5018906;28;20033;-70
2022/03/10 10:08:41;;;;;;;25.17;16.50;;;11.70;99.90;;;;;;5019580;28;20049;-70
2022/03/10 10:11:08;;;;;;;37.28;17.77;;;11.70;99.90;;;;;;5019527;28;20105;-70
2022/03/10 10:13:35;;;;;;;24.00;15.65;;;11.90;99.90;;;;;;5018786;28;20040;-70
2022/03/10 10:16:02;;;;;;;25.83;16.63;;;12.20;99.90;;;;;;5019386;28;20038;-69
2022/03/10 10:18:30;;;;;;;29.20;17.30;;;12.50;99.90;;;;;;5018414;28;20087;-68
2022/03/10 10:20:57;;;;;;;25.88;16.73;;;12.60;99.90;;;;;;5002134;28;20025;-69
2022/03/10 10:23:28;;;;;;;29.77;16.15;;;12.70;99.90;;;;;;5018451;28;20120;-69
2022/03/10 10:25:56;;;;;;;23.98;16.13;;;12.80;99.90;;;;;;5019041;28;20080;-68
2022/03/10 10:28:32;;;;;;;24.98;15.77;;;13.00;99.90;;;;;;5018234;28;20108;-70
2022/03/10 10:31:04;;;;;;;24.85;16.23;;;13.20;99.90;;;;;;5018337;28;20037;-69
2022/03/10 10:33:33;;;;;;;25.52;16.02;;;13.60;99.90;;;;;;5019046;28;20030;-68
2022/03/10 10:36:15;;;;;;;24.30;15.93;;;14.20;99.90;;;;;;5019349;28;20348;-67
2022/03/10 10:38:42;;;;;;;24.05;15.77;;;14.40;99.90;;;;;;5018444;28;20037;-68
2022/03/10 10:41:30;;;;;;;21.25;14.77;;;15.00;99.90;;;;;;5018124;28;20099;-68
2022/03/10 10:44:02;;;;;;;22.48;14.05;;;15.70;99.90;;;;;;5017814;28;20446;-68
2022/03/10 10:46:28;;;;;;;23.88;14.98;;;16.00;99.90;;;;;;5018012;28;20291;-70
2022/03/10 10:48:54;;;;;;;23.25;14.77;;;16.30;99.90;;;;;;5018081;28;20037;-67
2022/03/10 10:51:43;;;;;;;23.40;15.43;;;16.60;99.90;;;;;;5018226;28;20365;-68
2022/03/10 10:54:29;;;;;;;20.65;14.88;;;17.60;99.90;;;;;;5018027;28;20041;-67
2022/03/10 10:57:02;;;;;;;18.90;13.40;;;18.70;99.90;;;;;;5018259;28;20091;-67
2022/03/10 10:59:36;;;;;;;18.88;13.75;;;19.30;99.90;;;;;;5018914;28;20029;-67
2022/03/10 11:02:14;;;;;;;20.27;14.25;;;19.20;99.90;;;;;;5016813;28;20369;-67
2022/03/10 11:04:42;;;;;;;20.23;13.98;;;19.70;99.90;;;;;;5018402;28;20041;-68
2022/03/10 11:07:09;;;;;;;21.60;14.27;;;19.40;99.90;;;;;;5018389;28;20093;-67
2022/03/10 11:09:37;;;;;;;20.65;15.07;;;19.40;99.90;;;;;;5017699;28;20109;-67
2022/03/10 11:12:03;;;;;;;20.83;15.10;;;19.50;99.90;;;;;;5018183;28;20038;-69
2022/03/10 11:14:30;;;;;;;20.38;14.93;;;19.30;99.90;;;;;;5018345;28;20026;-68
2022/03/10 11:16:58;;;;;;;24.25;15.25;;;18.10;99.90;;;;;;5018218;28;20121;-68
2022/03/10 11:19:26;;;;;;;21.45;14.52;;;17.80;99.90;;;;;;5018145;28;20114;-67
2022/03/10 11:21:58;;;;;;;19.55;13.68;;;17.60;99.90;;;;;;5017166;28;20034;-69
2022/03/10 11:24:39;;;;;;;20.08;14.02;;;17.80;99.90;;;;;;5018165;28;20026;-68
2022/03/10 11:27:26;;;;;;;20.35;13.63;;;17.70;99.90;;;;;;5018156;28;20094;-68
2022/03/10 11:29:55;;;;;;;20.50;13.73;;;18.20;99.90;;;;;;5017955;28;20022;-67
2022/03/10 11:32:28;;;;;;;19.60;14.10;;;17.70;99.90;;;;;;5017103;28;20030;-68
2022/03/10 11:34:58;;;;;;;20.02;13.98;;;18.30;99.70;;;;;;5017213;28;20034;-68
2022/03/10 11:37:51;;;;;;;20.75;14.45;;;18.60;99.50;;;;;;5017104;28;20038;-68
2022/03/10 11:40:19;;;;;;;22.13;14.80;;;19.60;98.30;;;;;;5016424;28;20333;-68
2022/03/10 11:42:45;;;;;;;21.38;14.35;;;19.80;96.80;;;;;;5000460;28;20076;-68
2022/03/10 11:45:19;;;;;;;23.00;15.13;;;19.30;97.20;;;;;;5016952;28;20041;-68
2022/03/10 11:47:47;;;;;;;21.58;14.45;;;19.50;96.90;;;;;;5018626;28;20056;-68
2022/03/10 11:50:22;;;;;;;21.90;14.02;;;18.70;97.10;;;;;;5017458;28;20026;-69
2022/03/10 11:53:00;;;;;;;20.48;14.43;;;19.50;96.90;;;;;;5016826;28;20069;-68
2022/03/10 11:55:53;;;;;;;22.05;15.10;;;19.40;96.30;;;;;;5017105;28;20440;-68
2022/03/10 11:58:30;;;;;;;21.52;14.10;;;19.70;96.80;;;;;;5017531;28;20040;-69
2022/03/10 12:00:59;;;;;;;19.60;14.02;;;20.90;95.30;;;;;;5017844;28;20088;-69
2022/03/10 12:03:25;;;;;;;21.77;14.85;;;20.30;94.30;;;;;;5016524;28;20065;-68
2022/03/10 12:06:05;;;;;;;22.40;14.98;;;19.90;95.40;;;;;;5016758;28;20412;-68
2022/03/10 12:08:36;;;;;;;20.10;14.95;;;20.30;94.70;;;;;;5017159;28;20042;-68
2022/03/10 12:11:12;;;;;;;20.40;14.43;;;20.70;93.80;;;;;;5016724;28;20099;-68
2022/03/10 12:13:44;;;;;;;21.67;14.93;;;20.80;93.00;;;;;;5017187;28;20041;-69
2022/03/10 12:16:28;;;;;;;21.42;15.07;;;21.00;92.80;;;;;;5017145;28;20040;-69
2022/03/10 12:18:59;;;;;;;21.10;14.73;;;20.60;92.90;;;;;;5016584;28;20061;-69
2022/03/10 12:21:30;;;;;;;20.65;14.50;;;20.60;93.60;;;;;;5017366;28;20112;-69
2022/03/10 12:23:57;;;;;;;20.20;14.05;;;21.20;92.40;;;;;;5017175;28;20386;-68
2022/03/10 12:26:33;;;;;;;20.42;14.75;;;22.00;91.70;;;;;;5017200;28;20333;-67
2022/03/10 12:29:05;;;;;;;21.65;15.18;;;22.30;90.30;;;;;;5017057;28;20069;-68
2022/03/10 12:31:35;;;;;;;19.27;14.05;;;23.30;89.10;;;;;;5017447;28;20060;-69
2022/03/10 12:34:06;;;;;;;18.90;12.45;;;22.70;84.00;;;;;;5017234;28;20436;-69
2022/03/10 12:36:43;;;;;;;18.20;12.70;;;22.40;83.10;;;;;;5017151;28;20448;-69
2022/03/10 12:39:16;;;;;;;17.95;12.98;;;21.90;83.70;;;;;;5017034;28;20022;-69